Pagrindinis puslapis
METAR-TAF:

METAR-TAF

Oro uostai :

Kuritiba, Parana, Brazilija

platuma: 25-31S, ilguma: 049-10W, Aukštis: 908 m

Dabartinis oras

Ataskaita buvo paskelbta 18 minutes, ne 23:00 UTC
Vėjas 5 kt iš Šiaurės/Šiaurės Rytų
Temperatūra 26°C
Drėgmė 54%
Slėgis 1018 hPa
Matomumas 10 km arba daugiau
nėra debesų žemiau 1500 m ir nėra kamuolinių lietaus debesų

METAR: SBCT 162300Z 02005KT CAVOK 26/16 Q1018

Laikas: 20:18 (23:18 UTC)

Prognozė

Ataskaita buvo paskelbta 7 valandos ir 18 minutes, ne 16:00 UTC
Prognozė galioja nuo 16 metu 18 UTC su 17 metu 18 UTC
Vėjas 8 kt iš Šiaurės
Matomumas 10 km arba daugiau
nėra debesų žemiau 1500 m ir nėra kamuolinių lietaus debesų
Tapsmas
nuo 16 metu 20 UTC su 16 metu 22 UTC
Vėjas 7 kt iš Šiaurės Rytų
Tikimybė 30%
nuo 17 metu 04 UTC su 17 metu 09 UTC
Su prošvaistėmis ne aukštis 700 ft

TAF: SBCT 161600Z 1618/1718 36008KT CAVOK TX30/1618Z TN16/1707Z BECMG 1620/1622 04007KT PROB30 1704/1709 BKN007 RMK PDU

Orai ataskaitas ir orų prognozės (METAR, TAF).

turimą stotys yra geltonos ir raudonos taškus žemėlapyje.

Perkelti pele per norėdami pamatyti stoties vardą.

Tada spustelėkite, norėdami matyti oro stebėjimo ir prognozės.

Norėdami pakeisti žemėlapį: spustelėkite ant žalios mygtukų su juodo kryžiaus žemyn,; žalią mygtuką su brūkšneliu, jei norite nutolinti; arba žalių rodyklių gretimoms žemėlapius.


METAR-TAF: